createdAt,value
2022-09-15T06:00:45.746Z,2.67
2022-09-15T06:04:39.178Z,2.63
2022-09-15T06:08:33.902Z,2.70
2022-09-15T06:12:27.480Z,2.78
2022-09-15T06:16:22.987Z,2.25
2022-09-15T06:20:16.212Z,2.10
2022-09-15T06:24:12.607Z,1.98
2022-09-15T06:32:02.840Z,3.00
2022-09-15T06:35:56.236Z,2.88
2022-09-15T06:39:48.756Z,3.13
2022-09-15T06:43:42.392Z,2.28
2022-09-15T06:47:35.492Z,2.72
2022-09-15T06:51:31.497Z,2.38
2022-09-15T06:55:24.784Z,3.05
2022-09-15T06:59:17.427Z,2.63
2022-09-15T07:03:10.164Z,2.85
2022-09-15T07:07:03.157Z,2.50
2022-09-15T07:10:56.121Z,2.10
2022-09-15T07:14:48.820Z,2.10
2022-09-15T07:18:43.457Z,2.20
2022-09-15T07:22:36.580Z,2.20
2022-09-15T07:26:30.506Z,1.90
2022-09-15T07:30:23.420Z,2.00
2022-09-15T07:34:16.282Z,1.88
2022-09-15T07:38:10.584Z,1.92
2022-09-15T07:42:04.329Z,2.60
2022-09-15T07:45:58.344Z,2.45
2022-09-15T07:49:51.102Z,1.90
2022-09-15T07:53:45.613Z,1.80
2022-09-15T07:57:38.229Z,1.80
2022-09-15T08:01:31.232Z,1.60
2022-09-15T08:05:28.396Z,1.60
2022-09-15T08:09:21.154Z,1.40
2022-09-15T08:13:13.947Z,1.45
2022-09-15T08:17:11.293Z,1.55
2022-09-15T08:21:06.417Z,1.45
2022-09-15T08:24:59.272Z,1.40
2022-09-15T08:28:52.295Z,1.75
2022-09-15T08:32:45.277Z,1.48
2022-09-15T08:36:38.865Z,1.50
2022-09-15T08:40:45.821Z,1.45
2022-09-15T08:44:38.558Z,1.65
2022-09-15T08:48:42.551Z,1.80
2022-09-15T08:52:38.301Z,1.45
2022-09-15T08:56:31.229Z,1.50
2022-09-15T09:00:24.223Z,1.20
2022-09-15T09:04:32.372Z,1.55
2022-09-15T09:08:50.049Z,1.30
2022-09-15T09:12:48.693Z,1.75
2022-09-15T09:16:54.606Z,1.10
2022-09-15T09:21:19.201Z,1.20
2022-09-15T09:25:26.690Z,1.20
2022-09-15T09:29:30.026Z,1.00
2022-09-15T09:33:30.521Z,1.42
2022-09-15T09:37:24.791Z,1.20
2022-09-15T09:41:35.639Z,1.30
2022-09-15T09:45:28.667Z,1.30
2022-09-15T09:49:26.213Z,1.60
2022-09-15T09:53:23.445Z,1.30
2022-09-15T09:57:27.077Z,1.25
2022-09-15T10:01:24.656Z,1.35
2022-09-15T10:05:20.672Z,1.30
2022-09-15T10:09:18.201Z,1.20
2022-09-15T10:13:11.726Z,1.30
2022-09-15T10:17:42.933Z,1.20
2022-09-15T10:21:39.377Z,1.30
2022-09-15T10:25:49.631Z,1.40
2022-09-15T10:29:48.016Z,1.73
2022-09-15T10:33:43.378Z,1.40
2022-09-15T10:38:12.717Z,1.27
2022-09-15T10:42:36.382Z,1.40
2022-09-15T10:46:41.295Z,1.40
2022-09-15T10:50:48.050Z,1.20
2022-09-15T10:55:52.445Z,1.20
2022-09-15T10:59:57.475Z,1.27
2022-09-15T11:04:12.160Z,1.55
2022-09-15T11:08:32.109Z,1.33
2022-09-15T11:12:56.341Z,1.40
2022-09-15T11:17:07.753Z,1.50
2022-09-15T11:21:17.130Z,1.60
2022-09-15T11:25:23.002Z,1.55
2022-09-15T11:29:28.093Z,1.30
2022-09-15T11:33:27.376Z,1.30
2022-09-15T11:37:44.475Z,1.30
2022-09-15T11:41:44.041Z,1.17
2022-09-15T11:45:40.744Z,1.20
2022-09-15T11:49:49.092Z,1.30
2022-09-15T11:54:07.733Z,1.50
2022-09-15T11:58:09.931Z,1.38
2022-09-15T12:02:16.893Z,1.40
2022-09-15T12:06:17.462Z,1.55
2022-09-15T12:10:23.192Z,1.30
2022-09-15T12:14:32.860Z,1.65
2022-09-15T12:18:41.055Z,1.25
2022-09-15T12:22:46.847Z,1.83
2022-09-15T12:26:43.188Z,1.20
2022-09-15T12:30:41.573Z,1.20
2022-09-15T12:34:37.575Z,1.05
2022-09-15T12:38:31.551Z,1.47
2022-09-15T12:42:29.567Z,1.35
2022-09-15T12:46:22.422Z,1.23
2022-09-15T12:50:31.640Z,1.30
2022-09-15T12:54:29.727Z,1.30
2022-09-15T12:58:47.468Z,1.30
2022-09-15T13:02:46.170Z,1.40
2022-09-15T13:06:39.140Z,1.67
2022-09-15T13:10:37.269Z,1.30
2022-09-15T13:14:37.635Z,1.20
2022-09-15T13:18:34.350Z,1.50
2022-09-15T13:22:36.033Z,1.30
2022-09-15T13:26:33.024Z,1.30
2022-09-15T13:30:54.825Z,1.40
2022-09-15T13:35:09.158Z,1.52
2022-09-15T13:39:24.811Z,1.60
2022-09-15T13:43:30.788Z,1.58
2022-09-15T13:47:38.495Z,1.60
2022-09-15T13:51:32.846Z,2.50
2022-09-15T13:55:28.120Z,1.65
2022-09-15T13:59:29.596Z,1.65
2022-09-15T14:03:27.542Z,1.90
2022-09-15T14:07:24.210Z,1.40
2022-09-15T14:11:23.064Z,1.77
2022-09-15T14:15:22.950Z,1.90
2022-09-15T14:19:33.932Z,1.90
2022-09-15T14:23:26.644Z,2.45
2022-09-15T14:27:26.189Z,2.00
2022-09-15T14:31:38.601Z,1.95
2022-09-15T14:35:36.872Z,2.50
2022-09-15T14:39:30.082Z,2.83
2022-09-15T14:43:40.315Z,2.22
2022-09-15T14:47:33.174Z,1.88
2022-09-15T14:51:33.110Z,2.00
2022-09-15T14:55:29.372Z,2.10
2022-09-15T14:59:32.968Z,2.67
2022-09-15T15:04:13.514Z,2.40
2022-09-15T15:08:09.372Z,2.20
2022-09-15T15:12:07.369Z,2.30
2022-09-15T15:16:00.241Z,2.00
2022-09-15T15:19:59.460Z,2.00
2022-09-15T15:23:51.873Z,2.22
2022-09-15T15:27:51.862Z,2.40
2022-09-15T15:31:44.414Z,2.60
2022-09-15T15:35:36.962Z,2.55
2022-09-15T15:39:29.441Z,2.38
2022-09-15T15:43:24.563Z,2.00
2022-09-15T15:47:19.886Z,2.20
2022-09-15T15:51:12.644Z,2.78
2022-09-15T15:55:05.907Z,2.70
2022-09-15T15:58:58.263Z,2.28
2022-09-15T16:02:51.834Z,2.13
2022-09-15T16:06:45.180Z,2.70
2022-09-15T16:10:44.222Z,2.42
2022-09-15T16:14:36.710Z,2.40
2022-09-15T16:18:29.493Z,2.20
2022-09-15T16:22:22.032Z,2.42
2022-09-15T16:26:17.662Z,2.47
2022-09-15T16:30:12.152Z,2.22
2022-09-15T16:34:04.840Z,2.33
2022-09-15T16:37:57.290Z,2.00
2022-09-15T16:41:50.015Z,2.08
2022-09-15T16:45:43.609Z,2.30
2022-09-15T16:49:39.369Z,2.30
2022-09-15T16:53:32.723Z,1.80
2022-09-15T16:57:25.830Z,1.90
2022-09-15T17:01:20.978Z,1.95
2022-09-15T17:05:20.480Z,2.00
2022-09-15T17:09:13.265Z,2.08
2022-09-15T17:13:06.859Z,2.40
2022-09-15T17:16:59.323Z,1.75
2022-09-15T17:20:52.253Z,2.10
2022-09-15T17:24:44.667Z,2.33
2022-09-15T17:28:37.540Z,2.30
2022-09-15T17:32:34.675Z,3.60
2022-09-15T17:36:27.392Z,2.65
2022-09-15T17:40:21.307Z,2.95
2022-09-15T17:44:13.637Z,3.33
2022-09-15T17:48:06.465Z,2.70
2022-09-15T17:51:59.815Z,2.25
2022-09-15T17:55:54.744Z,2.47
2022-09-15T17:59:47.522Z,2.75
2022-09-15T18:03:40.385Z,2.53
2022-09-15T18:07:33.191Z,2.80
2022-09-15T18:11:27.503Z,2.50
2022-09-15T18:15:22.879Z,2.80
2022-09-15T18:19:15.635Z,2.80
2022-09-15T18:23:15.005Z,2.47
2022-09-15T18:27:07.789Z,2.47
2022-09-15T18:31:01.149Z,3.17
2022-09-15T18:34:53.885Z,2.78
2022-09-15T18:38:46.483Z,2.83
2022-09-15T18:42:40.529Z,2.70
2022-09-15T18:46:33.228Z,2.88
2022-09-15T18:50:26.260Z,3.80
2022-09-15T18:54:19.263Z,3.33
2022-09-15T18:58:13.056Z,3.20
2022-09-15T19:02:06.585Z,2.85
2022-09-15T19:06:07.051Z,2.80
2022-09-15T19:10:01.033Z,2.92
2022-09-15T19:13:53.957Z,3.08
2022-09-15T19:17:46.841Z,3.40
2022-09-15T19:21:39.768Z,2.92
2022-09-15T19:25:33.033Z,4.00
2022-09-15T19:29:25.748Z,3.20
2022-09-15T19:33:18.221Z,3.47
2022-09-15T19:37:15.282Z,3.80
2022-09-15T19:41:13.566Z,3.72
2022-09-15T19:45:07.564Z,4.18
2022-09-15T19:49:01.846Z,4.47
2022-09-15T19:52:58.865Z,4.15
2022-09-15T19:56:52.329Z,3.60
2022-09-15T20:00:51.248Z,3.38
2022-09-15T20:08:54.533Z,3.88
2022-09-15T20:12:47.195Z,5.47
2022-09-15T20:16:39.852Z,3.50
2022-09-15T20:20:33.404Z,3.25
2022-09-15T20:24:25.798Z,3.72
2022-09-15T20:28:18.104Z,3.47
2022-09-15T20:32:10.417Z,4.03
2022-09-15T20:36:17.922Z,3.67
2022-09-15T20:40:10.454Z,4.00
2022-09-15T20:44:03.152Z,4.38
2022-09-15T20:47:55.606Z,4.53
2022-09-15T20:51:50.494Z,4.35
2022-09-15T20:55:49.399Z,4.47
2022-09-15T20:59:41.715Z,4.30
